Time;durP1;ratioP1;P1;durP2;ratioP2;P2;SDS_P1;SDS_P2;PMS_P1;PMS_P2;Temp;Humidity;BMP_temperature;BMP_pressure;BME280_temperature;BME280_humidity;BME280_pressure;Samples;Min_cycle;Max_cycle;Signal;HPM_P1;HPM_P2
2023/10/24 00:00:41;;;;;;;2.85;1.50;;;;;;;;;;5021672;28;20036;-67
2023/10/24 00:03:07;;;;;;;1.60;1.50;;;;;;;;;;5024841;28;20503;-67
2023/10/24 00:05:33;;;;;;;1.50;1.40;;;;;;;;;;5020866;28;20075;-70
2023/10/24 00:07:59;;;;;;;1.60;1.50;;;;;;;;;;5023292;28;20032;-68
2023/10/24 00:10:25;;;;;;;1.60;1.50;;;;;;;;;;5020497;28;20046;-68
2023/10/24 00:12:52;;;;;;;1.95;1.55;;;;;;;;;;5023212;28;20033;-68
2023/10/24 00:15:18;;;;;;;1.92;1.60;;;;;;;;;;5019988;28;20071;-68
2023/10/24 00:17:44;;;;;;;2.00;1.50;;;;;;;;;;5023872;28;20033;-68
2023/10/24 00:20:10;;;;;;;1.80;1.50;;;;;;;;;;5023035;28;20021;-68
2023/10/24 00:22:36;;;;;;;5.03;1.65;;;;;;;;;;5034419;28;20026;-68
2023/10/24 00:25:03;;;;;;;5.05;1.95;;;;;;;;;;5019868;28;20109;-68
2023/10/24 00:27:29;;;;;;;1.80;1.50;;;;;;;;;;5038164;28;20456;-67
2023/10/24 00:29:55;;;;;;;3.50;1.40;;;;;;;;;;5022722;28;20034;-69
2023/10/24 00:32:21;;;;;;;4.10;1.85;;;;;;;;;;5025569;28;20508;-68
2023/10/24 00:34:47;;;;;;;3.78;1.60;;;;;;;;;;5041280;28;20026;-68
2023/10/24 00:37:13;;;;;;;1.92;1.75;;;;;;;;;;5023314;28;20030;-68
2023/10/24 00:39:39;;;;;;;4.00;2.25;;;;;;;;;;5028546;28;20104;-68
2023/10/24 00:42:05;;;;;;;2.85;1.80;;;;;;;;;;5042563;28;20493;-68
2023/10/24 00:44:32;;;;;;;5.57;1.80;;;;;;;;;;5037830;28;20060;-68
2023/10/24 00:46:58;;;;;;;5.55;1.85;;;;;;;;;;5025634;28;20675;-68
2023/10/24 00:49:25;;;;;;;4.40;2.10;;;;;;;;;;5019039;28;20485;-68
2023/10/24 00:51:53;;;;;;;3.83;1.70;;;;;;;;;;5022288;28;20026;-67
2023/10/24 00:54:19;;;;;;;5.55;2.22;;;;;;;;;;5027798;28;20422;-67
2023/10/24 00:56:46;;;;;;;4.60;1.92;;;;;;;;;;5023773;28;20050;-68
2023/10/24 00:59:13;;;;;;;5.05;1.90;;;;;;;;;;5023713;28;20808;-68
2023/10/24 01:01:39;;;;;;;4.88;2.10;;;;;;;;;;5027679;28;20080;-67
2023/10/24 01:04:06;;;;;;;4.05;1.65;;;;;;;;;;5023560;28;20105;-68
2023/10/24 01:06:32;;;;;;;3.13;1.50;;;;;;;;;;5025767;28;20037;-68
2023/10/24 01:08:58;;;;;;;4.13;2.00;;;;;;;;;;5025192;28;20037;-68
2023/10/24 01:11:24;;;;;;;4.55;1.70;;;;;;;;;;5025198;28;20025;-68
2023/10/24 01:13:50;;;;;;;2.22;1.85;;;;;;;;;;5024799;28;20025;-68
2023/10/24 01:16:17;;;;;;;3.13;1.60;;;;;;;;;;5024917;28;20112;-68
2023/10/24 01:18:43;;;;;;;4.93;2.00;;;;;;;;;;5026486;28;20276;-68
2023/10/24 01:21:09;;;;;;;7.18;3.22;;;;;;;;;;5025655;28;20029;-68
2023/10/24 01:23:36;;;;;;;5.60;1.92;;;;;;;;;;5025083;28;20032;-68
2023/10/24 01:26:03;;;;;;;2.95;1.70;;;;;;;;;;5026272;28;20041;-68
2023/10/24 01:28:29;;;;;;;11.35;2.88;;;;;;;;;;5026684;28;20641;-69
2023/10/24 01:30:55;;;;;;;8.55;3.03;;;;;;;;;;5041179;28;20107;-68
2023/10/24 01:33:22;;;;;;;5.13;2.53;;;;;;;;;;5022491;28;20021;-69
2023/10/24 01:35:49;;;;;;;7.70;2.25;;;;;;;;;;5020627;28;20021;-68
2023/10/24 01:38:15;;;;;;;5.75;2.03;;;;;;;;;;5026813;28;20033;-68
2023/10/24 01:40:41;;;;;;;4.63;2.17;;;;;;;;;;5024401;28;20479;-68
2023/10/24 01:43:07;;;;;;;9.10;2.20;;;;;;;;;;5027439;28;20056;-68
2023/10/24 01:45:34;;;;;;;2.97;1.90;;;;;;;;;;5025680;28;20445;-68
2023/10/24 01:48:01;;;;;;;9.90;2.30;;;;;;;;;;5028630;28;20036;-69
2023/10/24 01:50:27;;;;;;;5.50;2.15;;;;;;;;;;5022582;28;20072;-72
2023/10/24 01:52:54;;;;;;;3.17;2.00;;;;;;;;;;5025643;28;20067;-68
2023/10/24 01:55:20;;;;;;;4.95;1.90;;;;;;;;;;5026540;28;20060;-68
2023/10/24 01:57:46;;;;;;;3.92;1.73;;;;;;;;;;5023986;28;20037;-68
2023/10/24 02:00:12;;;;;;;6.38;1.95;;;;;;;;;;5025917;28;20021;-69
2023/10/24 02:02:38;;;;;;;4.30;1.85;;;;;;;;;;5022909;28;20029;-68
2023/10/24 02:05:05;;;;;;;9.30;3.20;;;;;;;;;;5024118;28;20056;-68
2023/10/24 02:07:31;;;;;;;6.50;2.47;;;;;;;;;;5028106;28;20040;-68
2023/10/24 02:09:57;;;;;;;7.40;2.50;;;;;;;;;;5021490;28;20064;-68
2023/10/24 02:12:24;;;;;;;7.60;2.00;;;;;;;;;;5025753;28;20026;-68
2023/10/24 02:14:50;;;;;;;10.55;2.10;;;;;;;;;;5025676;28;20040;-68
2023/10/24 02:17:16;;;;;;;8.45;2.45;;;;;;;;;;5024888;28;20036;-68
2023/10/24 02:19:42;;;;;;;3.72;1.73;;;;;;;;;;5025386;28;20029;-68
2023/10/24 02:22:08;;;;;;;2.85;1.77;;;;;;;;;;5026799;28;20029;-71
2023/10/24 02:24:35;;;;;;;6.93;2.00;;;;;;;;;;5025778;28;20044;-68
2023/10/24 02:27:01;;;;;;;9.85;1.92;;;;;;;;;;5023954;28;20045;-68
2023/10/24 02:29:27;;;;;;;4.38;2.70;;;;;;;;;;5023184;28;20417;-68
2023/10/24 02:31:54;;;;;;;6.03;2.03;;;;;;;;;;5022085;28;20032;-68
2023/10/24 02:34:21;;;;;;;2.10;1.63;;;;;;;;;;5025676;28;20096;-68
2023/10/24 02:36:47;;;;;;;9.13;1.70;;;;;;;;;;5020359;28;20284;-68
2023/10/24 02:39:13;;;;;;;1.70;1.60;;;;;;;;;;5025678;28;20028;-68
2023/10/24 02:41:39;;;;;;;6.80;1.83;;;;;;;;;;5024986;28;20057;-68
2023/10/24 02:44:05;;;;;;;2.70;1.70;;;;;;;;;;5025275;28;20551;-68
2023/10/24 02:46:31;;;;;;;2.00;1.75;;;;;;;;;;5022347;28;20140;-68
2023/10/24 02:48:57;;;;;;;4.97;1.55;;;;;;;;;;5020730;28;20034;-70
2023/10/24 02:51:23;;;;;;;4.55;1.73;;;;;;;;;;5020665;28;20501;-68
2023/10/24 02:53:49;;;;;;;1.45;1.35;;;;;;;;;;5021826;28;20041;-68
2023/10/24 02:56:15;;;;;;;2.60;1.83;;;;;;;;;;5021773;28;20025;-68
2023/10/24 02:58:42;;;;;;;2.03;1.45;;;;;;;;;;5030312;28;20091;-67
2023/10/24 03:01:08;;;;;;;5.35;1.70;;;;;;;;;;5023248;28;20159;-68
2023/10/24 03:03:34;;;;;;;1.40;1.30;;;;;;;;;;5025303;28;20120;-68
2023/10/24 03:06:00;;;;;;;4.18;1.52;;;;;;;;;;5024235;28;20798;-67
2023/10/24 03:08:27;;;;;;;5.68;1.83;;;;;;;;;;5023947;28;20540;-70
2023/10/24 03:10:53;;;;;;;4.90;2.05;;;;;;;;;;5026947;28;20026;-68
2023/10/24 03:13:19;;;;;;;1.67;1.50;;;;;;;;;;5026839;28;20033;-68
2023/10/24 03:15:45;;;;;;;3.13;1.80;;;;;;;;;;5028092;28;20032;-68
2023/10/24 03:18:11;;;;;;;3.33;1.50;;;;;;;;;;5026749;28;20028;-68
2023/10/24 03:20:40;;;;;;;3.85;1.88;;;;;;;;;;5041228;28;20038;-68
2023/10/24 03:23:06;;;;;;;2.40;1.48;;;;;;;;;;5018126;28;20108;-68
2023/10/24 03:25:32;;;;;;;5.05;1.90;;;;;;;;;;5023380;28;20037;-68
2023/10/24 03:27:58;;;;;;;1.90;1.42;;;;;;;;;;5021981;28;20464;-68
2023/10/24 03:30:24;;;;;;;5.07;1.45;;;;;;;;;;5025086;28;20064;-67
2023/10/24 03:32:51;;;;;;;1.55;1.27;;;;;;;;;;5024722;28;20052;-68
2023/10/24 03:35:17;;;;;;;1.90;1.50;;;;;;;;;;5022035;28;20030;-68
2023/10/24 03:37:43;;;;;;;3.40;1.92;;;;;;;;;;5021033;28;20020;-68
2023/10/24 03:40:09;;;;;;;2.55;1.90;;;;;;;;;;5020899;28;20037;-67
2023/10/24 03:42:36;;;;;;;2.40;1.73;;;;;;;;;;5023347;28;20328;-68
2023/10/24 03:45:02;;;;;;;5.90;1.90;;;;;;;;;;5020558;28;20035;-68
2023/10/24 03:47:28;;;;;;;2.90;1.50;;;;;;;;;;5022036;28;20030;-67
2023/10/24 03:49:54;;;;;;;4.18;1.55;;;;;;;;;;5024645;28;20412;-67
2023/10/24 03:52:20;;;;;;;3.13;1.70;;;;;;;;;;5032630;28;20021;-68
2023/10/24 03:54:46;;;;;;;3.17;1.80;;;;;;;;;;5025164;28;20389;-68
2023/10/24 03:57:12;;;;;;;5.38;1.73;;;;;;;;;;5013547;28;20030;-68
2023/10/24 03:59:38;;;;;;;5.00;1.58;;;;;;;;;;5024518;28;20108;-67
2023/10/24 04:02:04;;;;;;;4.00;1.60;;;;;;;;;;5027903;28;20105;-68
2023/10/24 04:04:31;;;;;;;4.38;1.55;;;;;;;;;;5022142;28;20041;-67
2023/10/24 04:06:57;;;;;;;1.63;1.40;;;;;;;;;;5022806;28;20036;-69
2023/10/24 04:09:23;;;;;;;3.78;1.88;;;;;;;;;;5021585;28;20025;-67
2023/10/24 04:11:49;;;;;;;3.53;2.35;;;;;;;;;;5013909;28;20109;-68
2023/10/24 04:14:16;;;;;;;2.33;1.55;;;;;;;;;;5023571;28;20076;-68
2023/10/24 04:16:42;;;;;;;5.18;1.75;;;;;;;;;;5040282;28;20709;-68
2023/10/24 04:19:08;;;;;;;6.30;2.35;;;;;;;;;;5038997;28;20029;-68
2023/10/24 04:21:34;;;;;;;4.28;1.63;;;;;;;;;;5024575;28;20041;-68
2023/10/24 04:24:00;;;;;;;5.40;1.90;;;;;;;;;;5016849;28;20029;-68
2023/10/24 04:26:26;;;;;;;4.07;1.95;;;;;;;;;;5038621;28;20436;-68
2023/10/24 04:28:52;;;;;;;2.85;1.60;;;;;;;;;;5022336;28;20036;-68
2023/10/24 04:31:19;;;;;;;3.95;1.75;;;;;;;;;;5024390;28;20029;-68
2023/10/24 04:33:46;;;;;;;2.05;1.60;;;;;;;;;;5025992;28;20492;-68
2023/10/24 04:36:12;;;;;;;11.82;1.90;;;;;;;;;;5023638;28;20057;-68
2023/10/24 04:38:38;;;;;;;3.08;1.50;;;;;;;;;;5024685;28;20048;-68
2023/10/24 04:41:04;;;;;;;2.92;1.50;;;;;;;;;;5019629;28;20433;-68
2023/10/24 04:43:30;;;;;;;1.60;1.50;;;;;;;;;;5034750;28;20033;-68
2023/10/24 04:45:56;;;;;;;2.97;1.70;;;;;;;;;;5019935;28;20406;-69
2023/10/24 04:48:23;;;;;;;13.73;1.95;;;;;;;;;;5019976;28;20112;-68
2023/10/24 04:50:49;;;;;;;2.58;2.35;;;;;;;;;;5024779;28;20017;-71
2023/10/24 04:53:15;;;;;;;3.03;1.85;;;;;;;;;;5022239;28;20026;-68
2023/10/24 04:55:42;;;;;;;1.60;1.50;;;;;;;;;;5018733;28;20441;-68
2023/10/24 04:58:08;;;;;;;6.65;1.70;;;;;;;;;;5019682;28;20650;-68
2023/10/24 05:00:34;;;;;;;3.95;1.80;;;;;;;;;;5028498;28;20605;-68
2023/10/24 05:03:00;;;;;;;4.70;1.60;;;;;;;;;;5018074;28;20104;-67
2023/10/24 05:05:27;;;;;;;2.25;1.60;;;;;;;;;;5024234;28;20079;-68
2023/10/24 05:07:53;;;;;;;1.95;1.42;;;;;;;;;;5027736;28;20034;-68
2023/10/24 05:10:20;;;;;;;5.20;1.63;;;;;;;;;;5016600;28;20527;-67
2023/10/24 05:12:46;;;;;;;7.18;1.90;;;;;;;;;;5020664;28;20029;-68
2023/10/24 05:15:12;;;;;;;1.98;1.60;;;;;;;;;;5020235;28;20224;-68
2023/10/24 05:17:38;;;;;;;3.45;1.50;;;;;;;;;;5027091;28;20389;-68
2023/10/24 05:20:07;;;;;;;4.05;2.13;;;;;;;;;;5040782;28;20482;-70
2023/10/24 05:22:34;;;;;;;2.88;1.52;;;;;;;;;;5027324;28;20163;-67
2023/10/24 05:25:00;;;;;;;2.85;1.58;;;;;;;;;;5025847;28;20477;-68
2023/10/24 05:27:26;;;;;;;3.38;1.10;;;;;;;;;;5037790;28;20045;-67
2023/10/24 05:29:53;;;;;;;3.22;1.77;;;;;;;;;;5020730;28;20194;-67
2023/10/24 05:32:19;;;;;;;2.92;1.30;;;;;;;;;;5023982;28;20109;-67
2023/10/24 05:34:45;;;;;;;3.58;1.60;;;;;;;;;;5018059;28;20537;-70
2023/10/24 05:37:11;;;;;;;1.65;1.50;;;;;;;;;;5023626;28;20116;-68
2023/10/24 05:39:40;;;;;;;5.28;1.95;;;;;;;;;;5022396;28;20037;-71
2023/10/24 05:42:06;;;;;;;2.00;1.70;;;;;;;;;;5026859;28;20481;-69
2023/10/24 05:44:33;;;;;;;1.77;1.50;;;;;;;;;;5024570;28;20033;-68
2023/10/24 05:46:59;;;;;;;1.85;1.40;;;;;;;;;;5025799;28;20024;-68
2023/10/24 05:49:25;;;;;;;2.55;1.52;;;;;;;;;;5026548;28;20464;-68
2023/10/24 05:51:52;;;;;;;6.47;1.95;;;;;;;;;;5016439;28;20046;-70
2023/10/24 05:54:18;;;;;;;1.60;1.45;;;;;;;;;;5019893;28;20036;-68
2023/10/24 05:56:44;;;;;;;2.90;1.60;;;;;;;;;;5021375;28;20608;-67
2023/10/24 05:59:11;;;;;;;3.20;1.52;;;;;;;;;;5019495;28;20044;-68
2023/10/24 06:01:37;;;;;;;1.75;1.42;;;;;;;;;;5012934;28;20037;-67
2023/10/24 06:04:03;;;;;;;1.67;1.58;;;;;;;;;;5021766;28;20543;-68
2023/10/24 06:06:29;;;;;;;1.50;1.25;;;;;;;;;;5020582;28;20031;-67
2023/10/24 06:08:55;;;;;;;2.00;1.45;;;;;;;;;;5018737;28;20037;-67
2023/10/24 06:11:21;;;;;;;1.42;1.40;;;;;;;;;;5019218;28;20017;-67
2023/10/24 06:13:47;;;;;;;1.60;1.50;;;;;;;;;;5022709;28;20065;-67
2023/10/24 06:16:16;;;;;;;3.40;1.88;;;;;;;;;;5023633;28;20021;-68
2023/10/24 06:18:43;;;;;;;5.05;1.75;;;;;;;;;;5018041;28;20512;-68
2023/10/24 06:21:10;;;;;;;1.85;1.60;;;;;;;;;;5022345;28;20065;-68
2023/10/24 06:23:40;;;;;;;3.28;1.80;;;;;;;;;;5019010;28;20048;-67
2023/10/24 06:26:16;;;;;;;2.75;1.67;;;;;;;;;;5023312;28;20420;-68
2023/10/24 06:28:42;;;;;;;1.77;1.65;;;;;;;;;;5015876;28;20409;-68
2023/10/24 06:31:08;;;;;;;2.90;1.75;;;;;;;;;;5020322;28;20021;-67
2023/10/24 06:33:34;;;;;;;2.53;1.50;;;;;;;;;;5022691;28;20022;-67
2023/10/24 06:36:01;;;;;;;2.08;1.60;;;;;;;;;;5020179;28;20022;-67
2023/10/24 06:38:27;;;;;;;2.10;1.50;;;;;;;;;;5020878;28;20466;-67
2023/10/24 06:40:55;;;;;;;1.70;1.60;;;;;;;;;;5026697;28;20029;-67
2023/10/24 06:43:21;;;;;;;3.08;1.40;;;;;;;;;;5025869;28;20025;-67
2023/10/24 06:45:47;;;;;;;1.95;1.40;;;;;;;;;;5021309;28;20025;-67
2023/10/24 06:48:14;;;;;;;1.70;1.58;;;;;;;;;;5022031;28;20125;-67
2023/10/24 06:50:42;;;;;;;5.97;1.65;;;;;;;;;;5022421;28;20205;-67
2023/10/24 06:53:08;;;;;;;1.60;1.50;;;;;;;;;;5024843;28;20025;-67
2023/10/24 06:55:35;;;;;;;4.20;1.40;;;;;;;;;;5020128;28;20489;-68
2023/10/24 06:58:01;;;;;;;3.75;1.65;;;;;;;;;;5023457;28;20105;-67
2023/10/24 07:00:28;;;;;;;2.60;1.45;;;;;;;;;;5023817;28;20030;-68
2023/10/24 07:02:54;;;;;;;2.40;1.50;;;;;;;;;;5022366;28;20029;-67
2023/10/24 07:05:20;;;;;;;2.58;1.63;;;;;;;;;;5018305;28;20512;-68
2023/10/24 07:07:46;;;;;;;3.00;1.58;;;;;;;;;;5021728;28;20034;-67
2023/10/24 07:10:13;;;;;;;1.50;1.38;;;;;;;;;;5020373;28;20694;-71
2023/10/24 07:12:39;;;;;;;2.30;1.50;;;;;;;;;;5023282;28;20047;-68
2023/10/24 07:15:05;;;;;;;2.65;1.70;;;;;;;;;;5023422;28;20164;-67
2023/10/24 07:17:32;;;;;;;1.52;1.35;;;;;;;;;;5023203;28;20505;-68
2023/10/24 07:19:59;;;;;;;2.63;1.27;;;;;;;;;;5017384;28;20038;-68
2023/10/24 07:22:25;;;;;;;3.05;1.60;;;;;;;;;;5021694;28;20029;-68
2023/10/24 07:24:52;;;;;;;2.33;1.40;;;;;;;;;;5020179;28;20560;-68
2023/10/24 07:27:18;;;;;;;4.10;1.70;;;;;;;;;;5023733;28;20057;-68
2023/10/24 07:29:45;;;;;;;2.00;1.77;;;;;;;;;;5022075;28;20037;-68
2023/10/24 07:32:11;;;;;;;4.35;1.40;;;;;;;;;;5018523;28;20025;-68
2023/10/24 07:34:41;;;;;;;2.00;1.50;;;;;;;;;;5024066;28;20505;-69
2023/10/24 07:37:07;;;;;;;1.50;1.40;;;;;;;;;;5017122;28;20346;-68
2023/10/24 07:39:33;;;;;;;2.63;1.58;;;;;;;;;;5024535;28;20037;-68
2023/10/24 07:41:59;;;;;;;1.42;1.33;;;;;;;;;;5024053;28;20440;-68
2023/10/24 07:44:25;;;;;;;5.43;3.28;;;;;;;;;;5024440;28;20361;-68
2023/10/24 07:46:52;;;;;;;3.70;1.70;;;;;;;;;;5020203;28;20040;-67
2023/10/24 07:49:18;;;;;;;2.70;1.70;;;;;;;;;;5021505;28;20129;-68
2023/10/24 07:51:44;;;;;;;3.25;1.88;;;;;;;;;;5013955;28;20041;-68
2023/10/24 07:54:13;;;;;;;4.30;1.92;;;;;;;;;;5023102;28;20025;-67
2023/10/24 07:56:43;;;;;;;6.25;2.10;;;;;;;;;;5023452;28;20076;-70
2023/10/24 07:59:09;;;;;;;5.75;1.90;;;;;;;;;;5023551;28;20440;-70
2023/10/24 08:01:36;;;;;;;5.07;2.65;;;;;;;;;;5021226;28;20199;-70
2023/10/24 08:04:02;;;;;;;4.13;1.90;;;;;;;;;;5040412;28;20053;-73
2023/10/24 08:06:28;;;;;;;2.17;1.80;;;;;;;;;;5021972;28;20034;-70
2023/10/24 08:08:54;;;;;;;6.13;1.92;;;;;;;;;;5019246;28;20041;-70
2023/10/24 08:11:20;;;;;;;3.05;1.70;;;;;;;;;;5017278;28;20107;-69
2023/10/24 08:13:47;;;;;;;3.10;1.65;;;;;;;;;;5020781;28;20033;-70
2023/10/24 08:16:13;;;;;;;2.83;2.03;;;;;;;;;;5022159;28;20036;-72
2023/10/24 08:18:39;;;;;;;2.97;1.75;;;;;;;;;;5018526;28;20026;-70
2023/10/24 08:21:07;;;;;;;2.30;1.65;;;;;;;;;;5021307;28;20030;-70
2023/10/24 08:23:33;;;;;;;1.73;1.52;;;;;;;;;;5037701;28;20041;-70
2023/10/24 08:25:59;;;;;;;2.53;1.60;;;;;;;;;;5018507;28;20037;-70
2023/10/24 08:28:25;;;;;;;2.40;1.80;;;;;;;;;;5018248;28;20056;-70
2023/10/24 08:30:52;;;;;;;2.40;1.70;;;;;;;;;;5023701;28;20025;-70
2023/10/24 08:33:20;;;;;;;4.55;1.70;;;;;;;;;;5017359;28;20040;-70
2023/10/24 08:35:46;;;;;;;3.38;1.75;;;;;;;;;;5027658;28;20159;-70
2023/10/24 08:38:13;;;;;;;2.15;1.95;;;;;;;;;;5018166;28;20029;-70
2023/10/24 08:40:40;;;;;;;3.58;1.88;;;;;;;;;;5024808;28;20030;-70
2023/10/24 08:43:08;;;;;;;5.22;1.98;;;;;;;;;;5024283;28;20034;-70
2023/10/24 08:45:35;;;;;;;7.72;2.15;;;;;;;;;;5024655;28;20705;-70
2023/10/24 08:48:03;;;;;;;3.35;2.15;;;;;;;;;;5020996;28;20038;-70
2023/10/24 08:50:29;;;;;;;9.88;2.75;;;;;;;;;;5022356;28;20087;-70
2023/10/24 08:52:56;;;;;;;5.95;2.70;;;;;;;;;;5024179;28;20021;-70
2023/10/24 08:55:22;;;;;;;6.45;2.90;;;;;;;;;;5020860;28;20242;-70
2023/10/24 08:57:49;;;;;;;6.95;2.53;;;;;;;;;;5025468;28;20090;-70
2023/10/24 09:00:16;;;;;;;7.03;2.47;;;;;;;;;;5026394;28;20038;-70
2023/10/24 09:02:43;;;;;;;5.82;2.13;;;;;;;;;;5026685;28;20037;-70
2023/10/24 09:05:13;;;;;;;7.65;2.25;;;;;;;;;;5029700;28;20485;-69
2023/10/24 09:07:39;;;;;;;3.40;1.75;;;;;;;;;;5018533;28;20037;-71
2023/10/24 09:10:06;;;;;;;4.57;1.90;;;;;;;;;;5023293;28;20029;-70
2023/10/24 09:12:33;;;;;;;7.65;3.10;;;;;;;;;;5025651;28;20037;-70
2023/10/24 09:15:00;;;;;;;8.45;4.30;;;;;;;;;;5024303;28;20037;-71
2023/10/24 09:17:26;;;;;;;4.72;1.98;;;;;;;;;;5022827;28;20774;-69
2023/10/24 09:19:58;;;;;;;2.95;2.00;;;;;;;;;;5019423;28;20439;-71
2023/10/24 09:22:28;;;;;;;5.53;2.60;;;;;;;;;;5025702;28;20029;-70
2023/10/24 09:24:57;;;;;;;6.07;2.78;;;;;;;;;;5021541;28;20452;-70
2023/10/24 09:27:24;;;;;;;3.35;2.40;;;;;;;;;;5025235;28;20488;-70
2023/10/24 09:29:50;;;;;;;2.40;1.80;;;;;;;;;;5025300;28;20044;-70
2023/10/24 09:32:16;;;;;;;7.03;2.40;;;;;;;;;;5025313;28;20080;-71
2023/10/24 09:34:46;;;;;;;5.85;2.50;;;;;;;;;;5024306;28;20108;-70
2023/10/24 09:37:13;;;;;;;4.32;3.85;;;;;;;;;;5022997;28;20116;-70
2023/10/24 09:39:52;;;;;;;3.55;2.10;;;;;;;;;;5025060;28;20033;-70
2023/10/24 09:42:22;;;;;;;5.03;2.83;;;;;;;;;;5022937;28;20563;-70
2023/10/24 09:44:48;;;;;;;2.25;1.92;;;;;;;;;;5024843;28;20026;-70
2023/10/24 09:47:15;;;;;;;1.83;1.70;;;;;;;;;;5024742;28;20060;-70
2023/10/24 09:49:42;;;;;;;3.30;2.38;;;;;;;;;;5027423;28;20036;-70
2023/10/24 09:52:09;;;;;;;1.60;1.50;;;;;;;;;;5025767;28;20026;-70
2023/10/24 09:54:37;;;;;;;2.40;1.83;;;;;;;;;;5023327;28;20116;-70
2023/10/24 09:57:03;;;;;;;1.88;1.60;;;;;;;;;;5020271;28;20029;-70
2023/10/24 09:59:30;;;;;;;5.18;3.42;;;;;;;;;;5022063;28;20048;-70
2023/10/24 10:01:56;;;;;;;3.63;1.90;;;;;;;;;;5022816;28;20393;-70
2023/10/24 10:04:23;;;;;;;1.42;1.33;;;;;;;;;;5021657;28;20037;-71
2023/10/24 10:06:49;;;;;;;1.92;1.40;;;;;;;;;;5025442;28;20037;-71
2023/10/24 10:09:18;;;;;;;2.97;1.92;;;;;;;;;;5023671;28;20124;-70
2023/10/24 10:11:45;;;;;;;1.60;1.50;;;;;;;;;;5026942;28;20110;-70
2023/10/24 10:14:37;;;;;;;3.35;1.48;;;;;;;;;;5024074;28;20171;-70
2023/10/24 10:17:15;;;;;;;4.63;3.47;;;;;;;;;;5023713;28;20026;-70
2023/10/24 10:19:41;;;;;;;5.55;3.45;;;;;;;;;;5027013;28;20374;-70
2023/10/24 10:22:22;;;;;;;4.80;3.38;;;;;;;;;;5026352;28;20067;-70
2023/10/24 10:24:55;;;;;;;5.85;2.78;;;;;;;;;;5019542;28;21082;-70
2023/10/24 10:27:24;;;;;;;5.45;3.22;;;;;;;;;;5021776;28;20076;-70
2023/10/24 10:29:50;;;;;;;2.28;1.80;;;;;;;;;;5023583;28;20041;-70
2023/10/24 10:32:27;;;;;;;2.20;1.70;;;;;;;;;;5024753;28;20052;-71
2023/10/24 10:34:54;;;;;;;2.30;2.10;;;;;;;;;;5022990;28;20109;-70
2023/10/24 10:37:20;;;;;;;4.15;2.17;;;;;;;;;;5022264;28;20469;-70
2023/10/24 10:40:07;;;;;;;3.63;2.40;;;;;;;;;;5016842;28;20491;-70
2023/10/24 10:42:47;;;;;;;4.05;3.35;;;;;;;;;;5017498;28;20029;-70
2023/10/24 10:45:40;;;;;;;4.65;2.53;;;;;;;;;;5023055;28;20037;-70
2023/10/24 10:48:06;;;;;;;4.68;3.08;;;;;;;;;;5012426;28;20037;-70
2023/10/24 10:50:33;;;;;;;13.35;6.57;;;;;;;;;;5019733;28;20489;-69
2023/10/24 10:53:12;;;;;;;13.27;8.68;;;;;;;;;;5023342;28;20037;-69
2023/10/24 10:55:58;;;;;;;12.25;7.70;;;;;;;;;;5020768;28;20698;-71
2023/10/24 10:58:27;;;;;;;13.38;7.35;;;;;;;;;;5019756;28;20040;-69
2023/10/24 11:01:03;;;;;;;13.10;6.18;;;;;;;;;;5022529;28;20037;-70
2023/10/24 11:03:45;;;;;;;16.15;6.78;;;;;;;;;;5024600;28;20104;-69
2023/10/24 11:06:12;;;;;;;17.40;7.50;;;;;;;;;;5024605;28;20029;-70
2023/10/24 11:08:39;;;;;;;16.27;7.35;;;;;;;;;;5023607;28;20028;-69
2023/10/24 11:11:07;;;;;;;9.98;4.72;;;;;;;;;;5025442;28;20033;-69
2023/10/24 11:13:35;;;;;;;11.15;4.97;;;;;;;;;;5020709;28;20053;-70
2023/10/24 11:16:02;;;;;;;8.15;4.55;;;;;;;;;;5027456;28;20060;-70
2023/10/24 11:18:29;;;;;;;8.65;5.32;;;;;;;;;;5021701;28;20083;-72
2023/10/24 11:20:55;;;;;;;13.45;7.95;;;;;;;;;;5019656;28;20496;-69
2023/10/24 11:23:22;;;;;;;8.60;4.95;;;;;;;;;;5021101;28;20096;-70
2023/10/24 11:25:48;;;;;;;10.52;6.13;;;;;;;;;;5024642;28;20037;-69
2023/10/24 11:28:15;;;;;;;8.30;5.28;;;;;;;;;;5019273;28;20041;-72
2023/10/24 11:30:41;;;;;;;9.05;4.93;;;;;;;;;;5027152;28;20033;-69
2023/10/24 11:33:07;;;;;;;3.55;2.50;;;;;;;;;;5022720;28;20025;-70
2023/10/24 11:35:33;;;;;;;5.45;2.47;;;;;;;;;;5023378;28;20393;-69
2023/10/24 11:37:59;;;;;;;16.63;6.15;;;;;;;;;;5021261;28;20025;-70
2023/10/24 11:40:25;;;;;;;20.85;7.93;;;;;;;;;;5022920;28;20112;-71
2023/10/24 11:42:52;;;;;;;10.00;4.72;;;;;;;;;;5021399;28;20036;-69
2023/10/24 11:45:18;;;;;;;8.27;4.85;;;;;;;;;;5023513;28;20061;-69
2023/10/24 11:47:45;;;;;;;6.05;3.80;;;;;;;;;;5024568;28;20370;-71
2023/10/24 11:50:13;;;;;;;4.18;2.13;;;;;;;;;;5023105;28;20029;-70
2023/10/24 11:52:39;;;;;;;3.38;2.72;;;;;;;;;;5022477;28;20055;-70
2023/10/24 11:55:06;;;;;;;4.13;2.78;;;;;;;;;;5021689;28;20397;-74
2023/10/24 11:57:33;;;;;;;2.53;2.17;;;;;;;;;;5000045;28;20433;-75
2023/10/24 11:59:59;;;;;;;2.80;1.95;;;;;;;;;;5017323;28;20366;-73
2023/10/24 12:02:25;;;;;;;2.38;1.75;;;;;;;;;;5019975;28;20440;-74
2023/10/24 12:04:51;;;;;;;2.30;2.10;;;;;;;;;;5017767;28;20464;-73
2023/10/24 12:07:18;;;;;;;2.25;1.95;;;;;;;;;;5017861;28;20497;-74
2023/10/24 12:09:44;;;;;;;3.28;1.80;;;;;;;;;;5019133;28;20033;-75
2023/10/24 12:12:12;;;;;;;2.13;1.85;;;;;;;;;;5015846;28;20907;-74
2023/10/24 12:14:38;;;;;;;2.65;2.13;;;;;;;;;;5013594;28;20090;-74
2023/10/24 12:17:08;;;;;;;3.28;2.17;;;;;;;;;;5017310;28;20569;-72
2023/10/24 12:19:34;;;;;;;4.05;2.53;;;;;;;;;;5019966;28;20086;-73
2023/10/24 12:22:00;;;;;;;4.65;1.80;;;;;;;;;;5015487;28;20663;-73
2023/10/24 12:24:26;;;;;;;1.55;1.45;;;;;;;;;;5014889;28;20037;-72
2023/10/24 12:26:52;;;;;;;1.92;1.60;;;;;;;;;;5012931;28;20044;-73
2023/10/24 12:29:18;;;;;;;1.88;1.70;;;;;;;;;;5014653;28;20075;-73
2023/10/24 12:31:44;;;;;;;5.03;1.77;;;;;;;;;;5015667;28;20030;-73
2023/10/24 12:34:12;;;;;;;4.57;1.90;;;;;;;;;;5031621;28;20037;-72
2023/10/24 12:36:39;;;;;;;4.00;2.22;;;;;;;;;;5016657;28;20037;-73
2023/10/24 12:39:05;;;;;;;3.65;1.90;;;;;;;;;;5013504;28;20029;-73
2023/10/24 12:41:31;;;;;;;2.63;2.20;;;;;;;;;;5014609;28;20083;-73
2023/10/24 12:43:57;;;;;;;4.95;1.90;;;;;;;;;;5010392;28;20051;-74
2023/10/24 12:46:23;;;;;;;2.38;1.88;;;;;;;;;;5014627;28;20034;-73
2023/10/24 12:48:49;;;;;;;2.90;1.90;;;;;;;;;;5009916;28;20087;-72
2023/10/24 12:51:15;;;;;;;2.08;1.70;;;;;;;;;;5017469;28;20548;-73
2023/10/24 12:53:41;;;;;;;3.95;2.00;;;;;;;;;;5008872;28;20036;-73
2023/10/24 12:56:10;;;;;;;3.25;1.60;;;;;;;;;;5015018;28;20030;-71
2023/10/24 12:58:36;;;;;;;4.53;2.03;;;;;;;;;;5012980;28;20148;-70
2023/10/24 13:01:02;;;;;;;2.53;1.83;;;;;;;;;;5013428;28;20136;-70
2023/10/24 13:03:29;;;;;;;1.80;1.65;;;;;;;;;;5017985;28;20028;-73
2023/10/24 13:05:55;;;;;;;4.20;2.13;;;;;;;;;;5016032;28;20141;-72
2023/10/24 13:08:21;;;;;;;3.88;2.00;;;;;;;;;;5015643;28;20025;-73
2023/10/24 13:10:47;;;;;;;3.38;1.70;;;;;;;;;;5015380;28;20485;-73
2023/10/24 13:13:14;;;;;;;2.25;2.05;;;;;;;;;;5012775;28;20056;-73
2023/10/24 13:15:40;;;;;;;2.58;1.60;;;;;;;;;;5014101;28;20021;-71
2023/10/24 13:18:06;;;;;;;4.93;2.03;;;;;;;;;;5013622;28;20029;-72
2023/10/24 13:20:32;;;;;;;1.73;1.52;;;;;;;;;;5014497;28;20037;-73
2023/10/24 13:22:58;;;;;;;2.13;1.60;;;;;;;;;;5008866;28;20084;-73
2023/10/24 13:25:24;;;;;;;2.05;1.67;;;;;;;;;;5011965;28;20036;-72
2023/10/24 13:27:50;;;;;;;1.90;1.70;;;;;;;;;;5007803;28;20111;-73
2023/10/24 13:30:16;;;;;;;3.15;1.67;;;;;;;;;;5021906;28;20037;-72
2023/10/24 13:32:43;;;;;;;2.97;1.70;;;;;;;;;;5019859;28;20068;-71
2023/10/24 13:35:09;;;;;;;3.33;1.75;;;;;;;;;;5026301;28;20439;-72
2023/10/24 13:37:35;;;;;;;2.88;1.60;;;;;;;;;;5027645;28;20116;-72
2023/10/24 13:40:02;;;;;;;2.63;2.22;;;;;;;;;;5027967;28;20150;-72
2023/10/24 13:42:28;;;;;;;4.95;2.25;;;;;;;;;;5025496;28;20037;-72
2023/10/24 13:44:54;;;;;;;6.90;3.20;;;;;;;;;;5022429;28;20064;-72
2023/10/24 13:47:20;;;;;;;7.93;3.70;;;;;;;;;;5025047;28;20103;-72
2023/10/24 13:49:46;;;;;;;5.63;2.65;;;;;;;;;;5026998;28;20068;-72
2023/10/24 13:52:14;;;;;;;4.55;2.70;;;;;;;;;;5023389;28;20033;-74
2023/10/24 13:54:40;;;;;;;15.70;6.38;;;;;;;;;;5018305;28;20051;-77
2023/10/24 13:57:06;;;;;;;7.10;3.83;;;;;;;;;;5014748;28;20061;-76
2023/10/24 13:59:32;;;;;;;7.00;3.65;;;;;;;;;;5018790;28;20116;-77
2023/10/24 14:01:59;;;;;;;2.88;2.20;;;;;;;;;;5015761;28;20044;-77
2023/10/24 14:04:25;;;;;;;2.72;1.90;;;;;;;;;;5014026;28;20083;-72
2023/10/24 14:06:51;;;;;;;2.30;1.90;;;;;;;;;;5017933;28;20110;-72
2023/10/24 14:09:17;;;;;;;3.92;1.88;;;;;;;;;;5013399;28;20091;-73
2023/10/24 14:11:43;;;;;;;4.32;2.10;;;;;;;;;;5017700;28;20030;-72
2023/10/24 14:14:11;;;;;;;4.63;2.05;;;;;;;;;;5015741;28;20033;-72
2023/10/24 14:16:37;;;;;;;3.72;2.22;;;;;;;;;;5012566;28;20541;-70
2023/10/24 14:19:04;;;;;;;2.88;2.17;;;;;;;;;;5018156;28;20509;-72
2023/10/24 14:21:30;;;;;;;3.88;2.30;;;;;;;;;;5016270;28;20124;-72
2023/10/24 14:23:56;;;;;;;6.35;3.15;;;;;;;;;;5017961;28;20486;-73
2023/10/24 14:26:22;;;;;;;9.95;4.60;;;;;;;;;;5022047;28;20040;-73
2023/10/24 14:28:48;;;;;;;4.40;2.80;;;;;;;;;;5021250;28;20414;-71
2023/10/24 14:31:14;;;;;;;6.60;3.13;;;;;;;;;;5024227;28;20406;-71
2023/10/24 14:33:42;;;;;;;6.75;3.30;;;;;;;;;;5019270;28;20025;-71
2023/10/24 14:36:08;;;;;;;8.30;3.47;;;;;;;;;;5022657;28;20508;-74
2023/10/24 14:38:34;;;;;;;3.88;2.53;;;;;;;;;;5017417;28;20444;-73
2023/10/24 14:41:00;;;;;;;2.63;1.75;;;;;;;;;;5035766;28;20531;-75